createdAt,value
2019-03-18T00:02:21.905Z,6.10
2019-03-18T00:05:11.975Z,6.10
2019-03-18T00:08:02.016Z,6.10
2019-03-18T00:10:51.633Z,6.10
2019-03-18T00:13:41.332Z,6.10
2019-03-18T00:16:31.115Z,6.10
2019-03-18T00:19:20.763Z,6.10
2019-03-18T00:22:10.382Z,6.10
2019-03-18T00:25:00.425Z,6.00
2019-03-18T00:27:50.428Z,6.00
2019-03-18T00:30:40.371Z,6.00
2019-03-18T00:33:30.199Z,6.00
2019-03-18T00:36:19.775Z,6.00
2019-03-18T00:39:10.065Z,6.00
2019-03-18T00:42:00.136Z,6.00
2019-03-18T00:44:49.903Z,6.00
2019-03-18T00:47:39.793Z,6.00
2019-03-18T00:50:30.097Z,6.10
2019-03-18T00:53:20.296Z,6.10
2019-03-18T00:56:10.063Z,6.10
2019-03-18T00:58:59.546Z,6.10
2019-03-18T01:01:49.425Z,6.10
2019-03-18T01:04:39.177Z,6.10
2019-03-18T01:07:28.686Z,6.10
2019-03-18T01:10:18.758Z,6.10
2019-03-18T01:13:08.646Z,6.10
2019-03-18T01:15:58.612Z,6.10
2019-03-18T01:18:49.593Z,6.00
2019-03-18T01:21:39.526Z,6.00
2019-03-18T01:24:30.407Z,6.00
2019-03-18T01:27:20.382Z,6.00
2019-03-18T01:30:09.965Z,6.00
2019-03-18T01:32:59.956Z,6.00
2019-03-18T01:35:52.696Z,5.90
2019-03-18T01:38:42.515Z,5.90
2019-03-18T01:41:32.762Z,5.90
2019-03-18T01:44:22.652Z,5.90
2019-03-18T01:47:12.594Z,5.90
2019-03-18T01:50:02.547Z,5.90
2019-03-18T01:52:52.295Z,6.00
2019-03-18T01:55:42.005Z,6.00
2019-03-18T01:58:31.963Z,6.10
2019-03-18T02:01:21.637Z,6.10
2019-03-18T02:04:11.965Z,6.10
2019-03-18T02:07:01.835Z,6.10
2019-03-18T02:09:51.702Z,6.10
2019-03-18T02:12:41.265Z,6.00
2019-03-18T02:15:31.042Z,6.10
2019-03-18T02:18:21.120Z,6.20
2019-03-18T02:21:11.235Z,6.20
2019-03-18T02:24:00.816Z,6.20
2019-03-18T02:26:50.981Z,6.20
2019-03-18T02:29:40.936Z,6.20
2019-03-18T02:32:30.569Z,6.10
2019-03-18T02:35:20.422Z,6.00
2019-03-18T02:38:10.195Z,6.10
2019-03-18T02:41:00.202Z,6.20
2019-03-18T02:43:49.791Z,6.20
2019-03-18T02:46:39.773Z,6.10
2019-03-18T02:49:29.616Z,6.20
2019-03-18T02:52:19.305Z,6.30
2019-03-18T02:55:09.390Z,6.40
2019-03-18T02:57:59.081Z,6.50
2019-03-18T03:00:49.056Z,6.50
2019-03-18T03:03:38.967Z,6.60
2019-03-18T03:06:28.814Z,6.40
2019-03-18T03:09:18.420Z,6.40
2019-03-18T03:12:08.680Z,6.40
2019-03-18T03:14:58.470Z,6.50
2019-03-18T03:17:48.012Z,6.50
2019-03-18T03:20:37.693Z,6.50
2019-03-18T03:23:27.500Z,6.60
2019-03-18T03:26:17.273Z,6.60
2019-03-18T03:29:07.036Z,6.50
2019-03-18T03:31:57.977Z,6.50
2019-03-18T03:34:47.979Z,6.40
2019-03-18T03:37:37.513Z,6.50
2019-03-18T03:40:27.396Z,6.50
2019-03-18T03:43:17.009Z,6.40
2019-03-18T03:46:41.936Z,6.50
2019-03-18T03:49:17.324Z,6.50
2019-03-18T03:52:07.206Z,6.50
2019-03-18T03:54:57.395Z,6.40
2019-03-18T04:01:03.354Z,6.00
2019-03-18T04:03:53.065Z,5.80
2019-03-18T04:06:42.743Z,5.60
2019-03-18T04:09:32.406Z,5.50
2019-03-18T04:12:21.976Z,5.50
2019-03-18T04:15:11.465Z,5.50
2019-03-18T04:18:01.823Z,5.50
2019-03-18T04:20:51.408Z,5.50
2019-03-18T04:23:41.400Z,5.40
2019-03-18T04:26:31.175Z,5.30
2019-03-18T04:29:22.935Z,5.30
2019-03-18T04:32:13.729Z,5.30
2019-03-18T04:35:03.405Z,5.40
2019-03-18T04:37:53.505Z,5.50
2019-03-18T04:40:43.243Z,5.50
2019-03-18T04:43:33.360Z,5.60
2019-03-18T04:46:23.344Z,5.60
2019-03-18T04:49:12.846Z,5.60
2019-03-18T04:52:02.773Z,5.70
2019-03-18T04:54:52.243Z,5.60
2019-03-18T04:57:42.015Z,5.60
2019-03-18T05:00:31.626Z,5.70
2019-03-18T05:03:21.184Z,5.70
2019-03-18T05:06:11.263Z,5.70
2019-03-18T05:09:01.163Z,5.70
2019-03-18T05:11:51.312Z,5.60
2019-03-18T05:14:42.045Z,5.70
2019-03-18T05:17:31.815Z,5.80
2019-03-18T05:20:21.756Z,5.80
2019-03-18T05:23:11.376Z,5.90
2019-03-18T05:26:01.152Z,5.90
2019-03-18T05:28:51.167Z,6.00
2019-03-18T05:31:40.925Z,6.00
2019-03-18T05:34:30.905Z,6.00
2019-03-18T05:37:20.514Z,6.00
2019-03-18T05:40:10.366Z,6.10
2019-03-18T05:43:00.277Z,6.00
2019-03-18T05:45:50.118Z,6.10
2019-03-18T05:48:40.056Z,6.20
2019-03-18T05:51:30.472Z,6.20
2019-03-18T05:54:20.377Z,6.30
2019-03-18T05:57:10.165Z,6.30
2019-03-18T06:00:00.382Z,6.30
2019-03-18T06:02:50.533Z,6.40
2019-03-18T06:05:40.624Z,6.40
2019-03-18T06:08:30.394Z,6.40
2019-03-18T06:11:20.336Z,6.50
2019-03-18T06:14:10.053Z,6.50
2019-03-18T06:16:59.862Z,6.60
2019-03-18T06:19:49.922Z,6.60
2019-03-18T06:22:40.048Z,6.70
2019-03-18T06:25:30.115Z,6.80
2019-03-18T06:28:20.086Z,6.80
2019-03-18T06:31:09.989Z,6.80
2019-03-18T06:33:59.651Z,6.60
2019-03-18T06:36:49.455Z,6.40
2019-03-18T06:39:39.212Z,6.30
2019-03-18T06:42:28.985Z,6.30
2019-03-18T06:45:18.464Z,6.30
2019-03-18T06:48:09.296Z,6.30
2019-03-18T06:50:59.163Z,6.30
2019-03-18T06:53:48.640Z,6.30
2019-03-18T06:56:40.315Z,6.30
2019-03-18T06:59:30.033Z,6.30
2019-03-18T07:02:19.722Z,6.30
2019-03-18T07:05:09.574Z,6.30
2019-03-18T07:07:59.388Z,6.40
2019-03-18T07:10:49.353Z,6.40
2019-03-18T07:13:39.168Z,6.50
2019-03-18T07:16:29.205Z,6.50
2019-03-18T07:19:19.005Z,6.60
2019-03-18T07:22:08.985Z,6.50
2019-03-18T07:24:58.686Z,6.50
2019-03-18T07:27:48.319Z,6.60
2019-03-18T07:30:37.925Z,6.80
2019-03-18T07:33:27.312Z,6.90
2019-03-18T07:36:17.169Z,7.00
2019-03-18T07:39:08.253Z,7.10
2019-03-18T07:41:58.186Z,7.20
2019-03-18T07:44:47.592Z,7.20
2019-03-18T07:47:37.935Z,7.10
2019-03-18T07:50:27.646Z,7.10
2019-03-18T07:53:18.330Z,7.20
2019-03-18T07:56:08.081Z,7.20
2019-03-18T07:58:57.833Z,7.30
2019-03-18T08:01:48.556Z,7.30
2019-03-18T08:04:38.334Z,7.40
2019-03-18T08:07:28.135Z,7.30
2019-03-18T08:10:18.016Z,7.30
2019-03-18T08:13:07.676Z,7.30
2019-03-18T08:15:57.255Z,7.40
2019-03-18T08:18:47.426Z,7.40
2019-03-18T08:21:37.126Z,7.40
2019-03-18T08:24:29.267Z,7.30
2019-03-18T08:27:19.042Z,7.30
2019-03-18T08:30:09.386Z,7.30
2019-03-18T08:32:59.454Z,7.30
2019-03-18T08:35:49.673Z,7.50
2019-03-18T08:38:39.470Z,7.50
2019-03-18T08:41:29.154Z,7.60
2019-03-18T08:44:18.950Z,7.40
2019-03-18T08:47:08.693Z,7.50
2019-03-18T08:49:59.745Z,7.50
2019-03-18T08:52:49.464Z,7.70
2019-03-18T08:55:39.207Z,7.70
2019-03-18T08:58:29.061Z,7.70
2019-03-18T09:01:19.945Z,7.70
2019-03-18T09:04:09.573Z,7.80
2019-03-18T09:06:59.537Z,7.80
2019-03-18T09:09:48.935Z,7.80
2019-03-18T09:12:38.231Z,8.00
2019-03-18T09:15:27.985Z,8.00
2019-03-18T09:18:17.488Z,7.90
2019-03-18T09:21:07.372Z,8.00
2019-03-18T09:23:57.162Z,8.10
2019-03-18T09:26:47.291Z,8.20
2019-03-18T09:29:37.137Z,8.30
2019-03-18T09:32:26.934Z,8.20
2019-03-18T09:35:16.857Z,8.30
2019-03-18T09:38:07.012Z,8.40
2019-03-18T09:40:56.806Z,8.50
2019-03-18T09:43:46.862Z,8.50
2019-03-18T09:46:36.926Z,8.80
2019-03-18T09:49:26.754Z,8.80
2019-03-18T09:52:19.922Z,8.80
2019-03-18T09:55:10.088Z,8.70
2019-03-18T09:58:00.098Z,8.70
2019-03-18T10:00:49.842Z,8.60
2019-03-18T10:03:39.835Z,8.80
2019-03-18T10:06:29.602Z,8.90
2019-03-18T10:09:19.646Z,9.00
2019-03-18T10:12:09.572Z,8.90
2019-03-18T10:14:59.394Z,9.00
2019-03-18T10:17:49.158Z,9.00
2019-03-18T10:20:39.262Z,9.00
2019-03-18T10:23:28.744Z,8.90
2019-03-18T10:26:18.606Z,8.30
2019-03-18T10:29:08.425Z,7.90
2019-03-18T10:31:58.422Z,7.60
2019-03-18T10:34:48.113Z,7.70
2019-03-18T10:37:37.886Z,7.90
2019-03-18T10:40:27.887Z,8.10
2019-03-18T10:43:17.602Z,8.30
2019-03-18T10:46:07.564Z,8.30
2019-03-18T10:48:57.503Z,8.10
2019-03-18T10:51:48.417Z,8.10
2019-03-18T10:54:39.064Z,8.00
2019-03-18T10:57:29.121Z,8.00
2019-03-18T11:00:18.721Z,8.00
2019-03-18T11:03:08.304Z,8.00
2019-03-18T11:05:58.282Z,7.70
2019-03-18T11:08:48.035Z,6.50
2019-03-18T11:11:37.721Z,6.30
2019-03-18T11:14:27.762Z,6.10
2019-03-18T11:17:17.424Z,6.10
2019-03-18T11:20:07.784Z,6.10
2019-03-18T11:22:57.352Z,6.20
2019-03-18T11:25:47.014Z,6.20
2019-03-18T11:28:37.135Z,6.20
2019-03-18T11:31:27.145Z,6.10
2019-03-18T11:34:17.113Z,6.10
2019-03-18T11:37:07.103Z,6.10
2019-03-18T11:39:57.185Z,6.10
2019-03-18T11:42:50.165Z,6.30
2019-03-18T11:45:40.234Z,6.50
2019-03-18T11:48:30.297Z,7.00
2019-03-18T11:51:20.007Z,7.00
2019-03-18T11:54:10.068Z,7.10
2019-03-18T11:57:00.477Z,7.40
2019-03-18T11:59:50.214Z,7.70
2019-03-18T12:02:40.253Z,7.90
2019-03-18T12:05:30.205Z,8.20
2019-03-18T12:08:20.142Z,8.20
2019-03-18T12:11:09.901Z,8.30
2019-03-18T12:13:59.666Z,8.40
2019-03-18T12:16:49.694Z,8.40
2019-03-18T12:19:39.634Z,8.30
2019-03-18T12:22:29.781Z,8.40
2019-03-18T12:25:19.601Z,8.40
2019-03-18T12:28:09.632Z,8.70
2019-03-18T12:30:59.532Z,8.60
2019-03-18T12:33:49.442Z,8.50
2019-03-18T12:36:39.495Z,8.50
2019-03-18T12:39:29.255Z,8.40
2019-03-18T12:42:19.462Z,8.50
2019-03-18T12:45:10.748Z,8.50
2019-03-18T12:48:00.503Z,8.50
2019-03-18T12:50:56.384Z,8.50
2019-03-18T12:53:42.711Z,8.40
2019-03-18T12:56:32.655Z,8.40
2019-03-18T12:59:22.372Z,8.40
2019-03-18T13:02:12.222Z,8.50
2019-03-18T13:05:02.044Z,8.50
2019-03-18T13:07:52.036Z,8.60
2019-03-18T13:10:42.126Z,8.70
2019-03-18T13:13:32.096Z,8.90
2019-03-18T13:16:21.893Z,8.70
2019-03-18T13:19:11.621Z,8.40
2019-03-18T13:22:01.584Z,8.40
2019-03-18T13:24:51.518Z,8.50
2019-03-18T13:27:41.303Z,8.30
2019-03-18T13:30:31.275Z,8.40
2019-03-18T13:33:21.007Z,8.40
2019-03-18T13:36:10.855Z,8.30
2019-03-18T13:39:00.435Z,8.40
2019-03-18T13:41:51.836Z,8.90
2019-03-18T13:44:42.755Z,9.30
2019-03-18T13:47:33.541Z,9.20
2019-03-18T13:50:23.756Z,9.30
2019-03-18T13:53:13.502Z,9.10
2019-03-18T13:56:02.895Z,8.90
2019-03-18T13:58:52.744Z,8.70
2019-03-18T14:01:42.246Z,8.70
2019-03-18T14:04:31.837Z,8.70
2019-03-18T14:07:22.486Z,8.70
2019-03-18T14:10:13.654Z,8.70
2019-03-18T14:13:03.755Z,8.80
2019-03-18T14:15:53.982Z,8.50
2019-03-18T14:18:43.786Z,7.40
2019-03-18T14:21:33.879Z,7.30
2019-03-18T14:24:23.995Z,7.30
2019-03-18T14:27:14.035Z,7.40
2019-03-18T14:30:04.485Z,7.50
2019-03-18T14:32:54.246Z,7.50
2019-03-18T14:35:44.083Z,7.70
2019-03-18T14:38:34.195Z,8.00
2019-03-18T14:41:24.039Z,8.20
2019-03-18T14:44:13.764Z,8.40
2019-03-18T14:47:03.845Z,8.60
2019-03-18T14:49:53.484Z,8.80
2019-03-18T14:52:43.272Z,8.80
2019-03-18T14:55:33.453Z,8.90
2019-03-18T14:58:23.273Z,8.80
2019-03-18T15:01:13.632Z,8.50
2019-03-18T15:04:03.533Z,8.50
2019-03-18T15:06:53.037Z,8.40
2019-03-18T15:09:43.105Z,8.30
2019-03-18T15:12:32.774Z,8.40
2019-03-18T15:15:22.855Z,8.40
2019-03-18T15:18:12.613Z,8.40
2019-03-18T15:21:02.838Z,8.40
2019-03-18T15:23:57.408Z,8.40
2019-03-18T15:26:47.446Z,8.30
2019-03-18T15:29:37.152Z,8.00
2019-03-18T15:32:26.774Z,6.90
2019-03-18T15:35:16.657Z,6.70
2019-03-18T15:38:06.657Z,6.60
2019-03-18T15:40:56.515Z,6.50
2019-03-18T15:43:46.331Z,6.60
2019-03-18T15:46:36.616Z,6.70
2019-03-18T15:49:26.485Z,6.60
2019-03-18T15:52:17.462Z,6.80
2019-03-18T15:55:07.421Z,6.80
2019-03-18T15:57:57.136Z,6.90
2019-03-18T16:00:46.935Z,7.00
2019-03-18T16:03:36.706Z,6.90
2019-03-18T16:06:26.852Z,7.00
2019-03-18T16:09:16.935Z,7.20
2019-03-18T16:12:06.558Z,7.20
2019-03-18T16:14:56.716Z,7.20
2019-03-18T16:17:46.831Z,7.10
2019-03-18T16:20:36.996Z,7.20
2019-03-18T16:23:26.802Z,7.20
2019-03-18T16:26:16.732Z,7.40
2019-03-18T16:29:06.834Z,7.50
2019-03-18T16:31:56.936Z,7.50
2019-03-18T16:34:46.612Z,7.50
2019-03-18T16:37:36.292Z,7.50
2019-03-18T16:40:26.383Z,7.50
2019-03-18T16:43:16.373Z,7.50
2019-03-18T16:46:06.267Z,7.40
2019-03-18T16:48:56.015Z,7.10
2019-03-18T16:51:46.645Z,6.80
2019-03-18T16:54:36.688Z,6.50
2019-03-18T16:57:26.792Z,6.40
2019-03-18T17:00:17.955Z,6.40
2019-03-18T17:03:09.200Z,6.50
2019-03-18T17:05:59.025Z,6.40
2019-03-18T17:08:48.753Z,6.30
2019-03-18T17:11:38.632Z,6.40
2019-03-18T17:14:28.452Z,6.40
2019-03-18T17:17:17.883Z,6.30
2019-03-18T17:20:08.983Z,6.30
2019-03-18T17:22:58.724Z,6.40
2019-03-18T17:25:48.456Z,6.40
2019-03-18T17:28:37.763Z,6.30
2019-03-18T17:31:27.972Z,6.40
2019-03-18T17:34:19.298Z,6.40
2019-03-18T17:37:09.115Z,6.40
2019-03-18T17:39:59.070Z,6.40
2019-03-18T17:42:48.775Z,6.40
2019-03-18T17:45:38.815Z,6.40
2019-03-18T17:48:29.472Z,6.40
2019-03-18T17:51:19.249Z,6.40
2019-03-18T17:54:09.744Z,6.40
2019-03-18T17:57:07.132Z,6.40
2019-03-18T17:59:52.914Z,6.40
2019-03-18T18:02:42.686Z,6.40
2019-03-18T18:05:32.518Z,6.40
2019-03-18T18:08:22.347Z,6.40
2019-03-18T18:11:12.723Z,6.50
2019-03-18T18:14:02.330Z,6.40
2019-03-18T18:16:53.106Z,6.40
2019-03-18T18:19:43.296Z,6.30
2019-03-18T18:22:33.191Z,6.30
2019-03-18T18:25:23.134Z,6.20
2019-03-18T18:28:13.204Z,6.30
2019-03-18T18:31:02.943Z,6.30
2019-03-18T18:33:53.037Z,6.20
2019-03-18T18:36:43.255Z,6.10
2019-03-18T18:39:33.446Z,6.20
2019-03-18T18:42:23.484Z,6.10
2019-03-18T18:45:13.646Z,6.10
2019-03-18T18:48:03.944Z,6.10
2019-03-18T18:50:53.585Z,6.10
2019-03-18T18:53:43.234Z,6.00
2019-03-18T18:56:32.766Z,6.00
2019-03-18T18:59:22.776Z,6.00
2019-03-18T19:02:12.894Z,5.90
2019-03-18T19:05:02.573Z,5.90
2019-03-18T19:07:52.323Z,5.90
2019-03-18T19:10:42.722Z,5.90
2019-03-18T19:13:32.974Z,5.90
2019-03-18T19:16:22.805Z,6.00
2019-03-18T19:19:12.562Z,6.00
2019-03-18T19:22:02.258Z,5.90
2019-03-18T19:24:52.287Z,5.90
2019-03-18T19:27:42.405Z,5.90
2019-03-18T19:30:32.327Z,6.00
2019-03-18T19:33:21.945Z,6.00
2019-03-18T19:36:11.806Z,6.00
2019-03-18T19:39:01.334Z,6.00
2019-03-18T19:41:52.385Z,5.90
2019-03-18T19:44:42.424Z,5.90
2019-03-18T19:47:32.336Z,5.90
2019-03-18T19:50:21.986Z,5.90
2019-03-18T19:53:11.770Z,5.90
2019-03-18T19:56:01.655Z,6.00
2019-03-18T19:58:51.477Z,5.80
2019-03-18T20:01:41.079Z,5.80
2019-03-18T20:04:30.604Z,5.80
2019-03-18T20:07:20.562Z,5.70
2019-03-18T20:10:12.454Z,5.70
2019-03-18T20:13:04.834Z,5.70
2019-03-18T20:15:55.041Z,5.70
2019-03-18T20:18:44.793Z,5.60
2019-03-18T20:21:34.720Z,5.60
2019-03-18T20:24:24.581Z,5.50
2019-03-18T20:27:14.651Z,5.50
2019-03-18T20:30:05.659Z,5.60
2019-03-18T20:32:55.461Z,5.60
2019-03-18T20:35:45.117Z,5.50
2019-03-18T20:38:34.601Z,5.50
2019-03-18T20:41:24.663Z,5.50
2019-03-18T20:44:14.251Z,5.50
2019-03-18T20:47:04.285Z,5.60
2019-03-18T20:49:53.926Z,5.60
2019-03-18T20:52:43.526Z,5.60
2019-03-18T20:55:33.314Z,5.70
2019-03-18T20:58:22.796Z,5.70
2019-03-18T21:01:12.582Z,5.80
2019-03-18T21:04:02.222Z,5.80
2019-03-18T21:06:52.062Z,5.80
2019-03-18T21:09:42.194Z,5.80
2019-03-18T21:12:31.831Z,5.80
2019-03-18T21:15:21.747Z,5.80
2019-03-18T21:18:11.501Z,5.80
2019-03-18T21:21:01.225Z,5.70
2019-03-18T21:23:52.868Z,5.70
2019-03-18T21:26:41.960Z,5.70
2019-03-18T21:29:31.941Z,5.70
2019-03-18T21:32:22.148Z,5.70
2019-03-18T21:35:12.262Z,5.60
2019-03-18T21:38:03.181Z,5.50
2019-03-18T21:40:53.202Z,5.60
2019-03-18T21:43:43.233Z,5.50
2019-03-18T21:46:32.684Z,5.40
2019-03-18T21:49:22.494Z,5.40
2019-03-18T21:52:13.385Z,5.30
2019-03-18T21:55:02.861Z,5.30
2019-03-18T21:57:53.456Z,5.30
2019-03-18T22:00:43.649Z,5.30
2019-03-18T22:03:34.715Z,5.30
2019-03-18T22:06:24.599Z,5.30
2019-03-18T22:09:14.693Z,5.20
2019-03-18T22:12:04.614Z,5.20
2019-03-18T22:14:54.655Z,5.20
2019-03-18T22:17:45.492Z,5.30
2019-03-18T22:20:35.563Z,5.30
2019-03-18T22:23:25.448Z,5.20
2019-03-18T22:26:15.440Z,5.20
2019-03-18T22:29:05.342Z,5.20
2019-03-18T22:31:55.704Z,5.10
2019-03-18T22:34:51.504Z,5.20
2019-03-18T22:37:41.448Z,5.20
2019-03-18T22:40:31.017Z,5.20
2019-03-18T22:43:21.072Z,5.10
2019-03-18T22:46:12.666Z,5.00
2019-03-18T22:49:02.375Z,5.10
2019-03-18T22:51:52.582Z,5.10
2019-03-18T22:54:42.666Z,5.10
2019-03-18T22:57:32.553Z,5.00
2019-03-18T23:00:29.167Z,5.00
2019-03-18T23:03:22.886Z,4.90
2019-03-18T23:06:11.704Z,4.90
2019-03-18T23:09:01.225Z,5.00
2019-03-18T23:11:52.275Z,5.00
2019-03-18T23:14:42.082Z,5.00
2019-03-18T23:17:31.853Z,4.90
2019-03-18T23:20:21.776Z,4.90
2019-03-18T23:23:11.515Z,4.90
2019-03-18T23:26:00.826Z,4.90
2019-03-18T23:28:50.028Z,4.90
2019-03-18T23:31:39.647Z,4.90
2019-03-18T23:34:29.307Z,4.90
2019-03-18T23:37:19.303Z,4.80
2019-03-18T23:40:09.553Z,4.70
2019-03-18T23:42:59.242Z,4.80
2019-03-18T23:45:49.773Z,4.90
2019-03-18T23:48:39.732Z,4.80
2019-03-18T23:51:29.356Z,4.70
2019-03-18T23:54:19.304Z,4.80
2019-03-18T23:57:08.943Z,4.60
2019-03-18T23:59:58.853Z,4.70
